EUN weather

Hassan I Airport
El Aaiún, Western Sahara

Public forecast

Using degrees Celsius for public forecast. Weather courtesy of forecast.io.

METAR (pilot weather report)

Retrieved 2019/05/21 04:00 UTC (29 minutes ago):

GMML 210400Z 02016KT 9999 BKN030 19/15 Q1015 NOSIG

TAF (pilot weather forecast)

Forecast is more than 12 hours old.

Retrieved 2019/05/20 00:18 UTC (1 day ago):

TAF GMML 202300Z 2100/2206 02013KT 8000 BKN020 BECMG 2110/2112 NSC PROB30 TEMPO 2115/2118 34018G31KT BECMG 2122/2124 BKN010